sensor_id;sensor_type;location;lat;lon;timestamp;P1;durP1;ratioP1;P2;durP2;ratioP2
11653;SDS011;5883;48.818;9.114;2023-04-26T00:01:04;7.45;;;5.03;;
11653;SDS011;5883;48.818;9.114;2023-04-26T00:03:49;6.93;;;5.57;;
11653;SDS011;5883;48.818;9.114;2023-04-26T00:06:34;7.28;;;4.82;;
11653;SDS011;5883;48.818;9.114;2023-04-26T00:09:19;8.50;;;4.95;;
11653;SDS011;5883;48.818;9.114;2023-04-26T00:12:05;5.63;;;4.57;;
11653;SDS011;5883;48.818;9.114;2023-04-26T00:14:50;5.68;;;4.70;;
11653;SDS011;5883;48.818;9.114;2023-04-26T00:17:37;7.85;;;4.80;;
11653;SDS011;5883;48.818;9.114;2023-04-26T00:20:21;8.20;;;5.20;;
11653;SDS011;5883;48.818;9.114;2023-04-26T00:23:07;8.45;;;5.05;;
11653;SDS011;5883;48.818;9.114;2023-04-26T00:25:53;7.18;;;4.75;;
11653;SDS011;5883;48.818;9.114;2023-04-26T00:28:38;8.90;;;5.18;;
11653;SDS011;5883;48.818;9.114;2023-04-26T00:31:24;6.63;;;4.40;;
11653;SDS011;5883;48.818;9.114;2023-04-26T00:34:10;8.05;;;4.93;;
11653;SDS011;5883;48.818;9.114;2023-04-26T00:36:55;8.05;;;5.05;;
11653;SDS011;5883;48.818;9.114;2023-04-26T00:39:40;9.23;;;4.88;;
11653;SDS011;5883;48.818;9.114;2023-04-26T00:42:25;9.55;;;4.50;;
11653;SDS011;5883;48.818;9.114;2023-04-26T00:45:10;6.40;;;4.30;;
11653;SDS011;5883;48.818;9.114;2023-04-26T00:47:55;7.03;;;4.93;;
11653;SDS011;5883;48.818;9.114;2023-04-26T00:50:42;9.05;;;4.60;;
11653;SDS011;5883;48.818;9.114;2023-04-26T00:53:27;8.80;;;5.15;;
11653;SDS011;5883;48.818;9.114;2023-04-26T00:56:13;7.05;;;4.93;;
11653;SDS011;5883;48.818;9.114;2023-04-26T00:59:00;6.20;;;4.72;;
11653;SDS011;5883;48.818;9.114;2023-04-26T01:01:46;7.72;;;5.20;;
11653;SDS011;5883;48.818;9.114;2023-04-26T01:04:31;6.40;;;5.00;;
11653;SDS011;5883;48.818;9.114;2023-04-26T01:07:18;9.77;;;5.25;;
11653;SDS011;5883;48.818;9.114;2023-04-26T01:10:03;6.82;;;4.72;;
11653;SDS011;5883;48.818;9.114;2023-04-26T01:12:49;11.30;;;4.80;;
11653;SDS011;5883;48.818;9.114;2023-04-26T01:15:34;9.60;;;5.53;;
11653;SDS011;5883;48.818;9.114;2023-04-26T01:18:19;7.82;;;4.78;;
11653;SDS011;5883;48.818;9.114;2023-04-26T01:21:04;9.30;;;5.22;;
11653;SDS011;5883;48.818;9.114;2023-04-26T01:23:51;7.78;;;4.60;;
11653;SDS011;5883;48.818;9.114;2023-04-26T01:26:36;8.43;;;5.13;;
11653;SDS011;5883;48.818;9.114;2023-04-26T01:29:26;5.70;;;4.43;;
11653;SDS011;5883;48.818;9.114;2023-04-26T01:32:11;10.50;;;4.80;;
11653;SDS011;5883;48.818;9.114;2023-04-26T01:34:56;5.90;;;4.70;;
11653;SDS011;5883;48.818;9.114;2023-04-26T01:37:42;10.43;;;4.75;;
11653;SDS011;5883;48.818;9.114;2023-04-26T01:40:28;9.95;;;5.25;;
11653;SDS011;5883;48.818;9.114;2023-04-26T01:43:13;8.48;;;4.93;;
11653;SDS011;5883;48.818;9.114;2023-04-26T01:46:00;8.80;;;5.32;;
11653;SDS011;5883;48.818;9.114;2023-04-26T01:48:46;10.15;;;4.90;;
11653;SDS011;5883;48.818;9.114;2023-04-26T01:51:31;9.63;;;5.80;;
11653;SDS011;5883;48.818;9.114;2023-04-26T01:54:17;10.88;;;5.40;;
11653;SDS011;5883;48.818;9.114;2023-04-26T01:57:03;11.20;;;5.75;;
11653;SDS011;5883;48.818;9.114;2023-04-26T01:59:48;6.57;;;5.25;;
11653;SDS011;5883;48.818;9.114;2023-04-26T02:02:33;11.85;;;6.15;;
11653;SDS011;5883;48.818;9.114;2023-04-26T02:05:18;8.75;;;5.78;;
11653;SDS011;5883;48.818;9.114;2023-04-26T02:08:03;9.90;;;6.10;;
11653;SDS011;5883;48.818;9.114;2023-04-26T02:10:48;8.75;;;6.03;;
11653;SDS011;5883;48.818;9.114;2023-04-26T02:13:35;10.10;;;6.07;;
11653;SDS011;5883;48.818;9.114;2023-04-26T02:16:20;9.20;;;5.47;;
11653;SDS011;5883;48.818;9.114;2023-04-26T02:19:05;10.30;;;6.53;;
11653;SDS011;5883;48.818;9.114;2023-04-26T02:21:53;10.93;;;6.93;;
11653;SDS011;5883;48.818;9.114;2023-04-26T02:24:39;12.38;;;7.05;;
11653;SDS011;5883;48.818;9.114;2023-04-26T02:27:24;12.48;;;6.85;;
11653;SDS011;5883;48.818;9.114;2023-04-26T02:30:11;9.50;;;6.63;;
11653;SDS011;5883;48.818;9.114;2023-04-26T02:32:57;11.73;;;7.30;;
11653;SDS011;5883;48.818;9.114;2023-04-26T02:35:42;10.02;;;7.97;;
11653;SDS011;5883;48.818;9.114;2023-04-26T02:38:27;12.07;;;8.60;;
11653;SDS011;5883;48.818;9.114;2023-04-26T02:41:12;12.48;;;7.95;;
11653;SDS011;5883;48.818;9.114;2023-04-26T02:43:57;13.10;;;8.20;;
11653;SDS011;5883;48.818;9.114;2023-04-26T02:46:43;13.55;;;8.13;;
11653;SDS011;5883;48.818;9.114;2023-04-26T02:49:29;13.63;;;8.30;;
11653;SDS011;5883;48.818;9.114;2023-04-26T02:52:14;14.75;;;8.25;;
11653;SDS011;5883;48.818;9.114;2023-04-26T02:54:59;13.98;;;9.15;;
11653;SDS011;5883;48.818;9.114;2023-04-26T02:57:45;12.85;;;8.45;;
11653;SDS011;5883;48.818;9.114;2023-04-26T03:00:30;11.13;;;7.53;;
11653;SDS011;5883;48.818;9.114;2023-04-26T03:03:18;14.05;;;7.70;;
11653;SDS011;5883;48.818;9.114;2023-04-26T03:06:03;11.30;;;7.68;;
11653;SDS011;5883;48.818;9.114;2023-04-26T03:08:49;9.27;;;7.35;;
11653;SDS011;5883;48.818;9.114;2023-04-26T03:11:34;12.65;;;7.43;;
11653;SDS011;5883;48.818;9.114;2023-04-26T03:14:18;9.77;;;6.88;;
11653;SDS011;5883;48.818;9.114;2023-04-26T03:17:03;11.07;;;7.47;;
11653;SDS011;5883;48.818;9.114;2023-04-26T03:19:50;9.98;;;7.53;;
11653;SDS011;5883;48.818;9.114;2023-04-26T03:22:35;14.18;;;7.57;;
11653;SDS011;5883;48.818;9.114;2023-04-26T03:25:20;12.25;;;7.45;;
11653;SDS011;5883;48.818;9.114;2023-04-26T03:28:05;10.70;;;7.68;;
11653;SDS011;5883;48.818;9.114;2023-04-26T03:30:50;9.73;;;7.10;;
11653;SDS011;5883;48.818;9.114;2023-04-26T03:33:35;11.77;;;8.18;;
11653;SDS011;5883;48.818;9.114;2023-04-26T03:36:21;12.30;;;7.35;;
11653;SDS011;5883;48.818;9.114;2023-04-26T03:39:06;9.55;;;7.00;;
11653;SDS011;5883;48.818;9.114;2023-04-26T03:41:52;11.32;;;6.53;;
11653;SDS011;5883;48.818;9.114;2023-04-26T03:44:37;13.18;;;7.45;;
11653;SDS011;5883;48.818;9.114;2023-04-26T03:47:22;12.23;;;7.25;;
11653;SDS011;5883;48.818;9.114;2023-04-26T03:50:07;10.60;;;7.28;;
11653;SDS011;5883;48.818;9.114;2023-04-26T03:52:54;12.48;;;7.40;;
11653;SDS011;5883;48.818;9.114;2023-04-26T03:55:39;15.82;;;8.15;;
11653;SDS011;5883;48.818;9.114;2023-04-26T03:58:24;11.38;;;7.68;;
11653;SDS011;5883;48.818;9.114;2023-04-26T04:01:09;9.80;;;7.57;;
11653;SDS011;5883;48.818;9.114;2023-04-26T04:03:54;15.10;;;8.13;;
11653;SDS011;5883;48.818;9.114;2023-04-26T04:06:39;9.73;;;6.85;;
11653;SDS011;5883;48.818;9.114;2023-04-26T04:09:25;9.70;;;7.32;;
11653;SDS011;5883;48.818;9.114;2023-04-26T04:12:10;11.20;;;7.45;;
11653;SDS011;5883;48.818;9.114;2023-04-26T04:14:55;10.80;;;7.63;;
11653;SDS011;5883;48.818;9.114;2023-04-26T04:17:40;10.35;;;7.35;;
11653;SDS011;5883;48.818;9.114;2023-04-26T04:20:25;10.48;;;7.82;;
11653;SDS011;5883;48.818;9.114;2023-04-26T04:23:10;14.85;;;8.43;;
11653;SDS011;5883;48.818;9.114;2023-04-26T04:25:57;12.82;;;7.97;;
11653;SDS011;5883;48.818;9.114;2023-04-26T04:28:42;9.93;;;6.90;;
11653;SDS011;5883;48.818;9.114;2023-04-26T04:31:28;9.57;;;7.28;;
11653;SDS011;5883;48.818;9.114;2023-04-26T04:34:12;13.15;;;8.00;;
11653;SDS011;5883;48.818;9.114;2023-04-26T04:36:58;12.65;;;8.05;;
11653;SDS011;5883;48.818;9.114;2023-04-26T04:39:43;13.02;;;7.95;;
11653;SDS011;5883;48.818;9.114;2023-04-26T04:42:30;11.23;;;8.27;;
11653;SDS011;5883;48.818;9.114;2023-04-26T04:45:15;12.73;;;8.13;;
11653;SDS011;5883;48.818;9.114;2023-04-26T04:48:00;21.25;;;8.43;;
11653;SDS011;5883;48.818;9.114;2023-04-26T04:50:47;10.55;;;8.20;;
11653;SDS011;5883;48.818;9.114;2023-04-26T04:53:33;10.80;;;8.00;;
11653;SDS011;5883;48.818;9.114;2023-04-26T04:56:18;13.68;;;8.82;;
11653;SDS011;5883;48.818;9.114;2023-04-26T04:59:05;14.63;;;9.82;;
11653;SDS011;5883;48.818;9.114;2023-04-26T05:01:51;12.68;;;9.40;;
11653;SDS011;5883;48.818;9.114;2023-04-26T05:04:36;15.05;;;8.75;;
11653;SDS011;5883;48.818;9.114;2023-04-26T05:07:21;15.20;;;8.93;;
11653;SDS011;5883;48.818;9.114;2023-04-26T05:10:06;13.40;;;8.65;;
11653;SDS011;5883;48.818;9.114;2023-04-26T05:12:51;10.93;;;7.65;;
11653;SDS011;5883;48.818;9.114;2023-04-26T05:15:37;13.02;;;9.00;;
11653;SDS011;5883;48.818;9.114;2023-04-26T05:18:22;14.38;;;9.02;;
11653;SDS011;5883;48.818;9.114;2023-04-26T05:21:08;12.10;;;8.85;;
11653;SDS011;5883;48.818;9.114;2023-04-26T05:23:53;13.20;;;9.48;;
11653;SDS011;5883;48.818;9.114;2023-04-26T05:26:38;13.27;;;9.18;;
11653;SDS011;5883;48.818;9.114;2023-04-26T05:29:23;12.80;;;8.75;;
11653;SDS011;5883;48.818;9.114;2023-04-26T05:32:10;17.25;;;9.07;;
11653;SDS011;5883;48.818;9.114;2023-04-26T05:34:55;13.00;;;8.27;;
11653;SDS011;5883;48.818;9.114;2023-04-26T05:37:40;15.55;;;8.95;;
11653;SDS011;5883;48.818;9.114;2023-04-26T05:40:25;13.40;;;9.07;;
11653;SDS011;5883;48.818;9.114;2023-04-26T05:43:10;14.55;;;8.35;;
11653;SDS011;5883;48.818;9.114;2023-04-26T05:45:56;15.07;;;7.57;;
11653;SDS011;5883;48.818;9.114;2023-04-26T05:48:42;11.40;;;7.63;;
11653;SDS011;5883;48.818;9.114;2023-04-26T05:51:27;9.75;;;7.03;;
11653;SDS011;5883;48.818;9.114;2023-04-26T05:54:12;8.88;;;6.47;;
11653;SDS011;5883;48.818;9.114;2023-04-26T05:56:57;11.68;;;7.32;;
11653;SDS011;5883;48.818;9.114;2023-04-26T05:59:42;12.02;;;6.93;;
11653;SDS011;5883;48.818;9.114;2023-04-26T06:02:28;10.98;;;6.18;;
11653;SDS011;5883;48.818;9.114;2023-04-26T06:05:14;9.55;;;6.68;;
11653;SDS011;5883;48.818;9.114;2023-04-26T06:07:59;8.63;;;6.22;;
11653;SDS011;5883;48.818;9.114;2023-04-26T06:10:45;7.90;;;6.20;;
11653;SDS011;5883;48.818;9.114;2023-04-26T06:13:30;11.63;;;6.40;;
11653;SDS011;5883;48.818;9.114;2023-04-26T06:16:15;8.18;;;5.95;;
11653;SDS011;5883;48.818;9.114;2023-04-26T06:19:00;16.40;;;6.78;;
11653;SDS011;5883;48.818;9.114;2023-04-26T06:21:46;6.88;;;5.93;;
11653;SDS011;5883;48.818;9.114;2023-04-26T06:24:32;8.65;;;5.63;;
11653;SDS011;5883;48.818;9.114;2023-04-26T06:27:17;9.55;;;5.65;;
11653;SDS011;5883;48.818;9.114;2023-04-26T06:30:02;10.40;;;4.63;;
11653;SDS011;5883;48.818;9.114;2023-04-26T06:32:48;6.13;;;4.57;;
11653;SDS011;5883;48.818;9.114;2023-04-26T06:35:36;8.05;;;5.10;;
11653;SDS011;5883;48.818;9.114;2023-04-26T06:38:24;8.20;;;5.50;;
11653;SDS011;5883;48.818;9.114;2023-04-26T06:41:09;8.05;;;5.30;;
11653;SDS011;5883;48.818;9.114;2023-04-26T06:43:54;5.55;;;4.68;;
11653;SDS011;5883;48.818;9.114;2023-04-26T06:46:39;8.02;;;4.68;;
11653;SDS011;5883;48.818;9.114;2023-04-26T06:49:24;6.95;;;4.15;;
11653;SDS011;5883;48.818;9.114;2023-04-26T06:52:09;9.30;;;4.72;;
11653;SDS011;5883;48.818;9.114;2023-04-26T06:54:56;5.90;;;4.22;;
11653;SDS011;5883;48.818;9.114;2023-04-26T06:57:41;8.95;;;4.53;;
11653;SDS011;5883;48.818;9.114;2023-04-26T07:00:26;8.23;;;4.90;;
11653;SDS011;5883;48.818;9.114;2023-04-26T07:03:12;7.03;;;4.05;;
11653;SDS011;5883;48.818;9.114;2023-04-26T07:05:57;8.18;;;4.30;;
11653;SDS011;5883;48.818;9.114;2023-04-26T07:08:42;6.72;;;4.28;;
11653;SDS011;5883;48.818;9.114;2023-04-26T07:11:28;4.88;;;3.22;;
11653;SDS011;5883;48.818;9.114;2023-04-26T07:14:14;5.32;;;3.95;;
11653;SDS011;5883;48.818;9.114;2023-04-26T07:16:59;4.47;;;2.97;;
11653;SDS011;5883;48.818;9.114;2023-04-26T07:19:44;4.50;;;3.10;;
11653;SDS011;5883;48.818;9.114;2023-04-26T07:22:29;5.78;;;2.80;;
11653;SDS011;5883;48.818;9.114;2023-04-26T07:25:14;6.32;;;2.65;;
11653;SDS011;5883;48.818;9.114;2023-04-26T07:28:00;4.28;;;2.70;;
11653;SDS011;5883;48.818;9.114;2023-04-26T07:30:46;6.35;;;2.80;;
11653;SDS011;5883;48.818;9.114;2023-04-26T07:33:31;4.50;;;2.50;;
11653;SDS011;5883;48.818;9.114;2023-04-26T07:36:16;4.53;;;2.42;;
11653;SDS011;5883;48.818;9.114;2023-04-26T07:39:01;6.25;;;2.90;;
11653;SDS011;5883;48.818;9.114;2023-04-26T07:41:47;5.30;;;2.67;;
11653;SDS011;5883;48.818;9.114;2023-04-26T07:44:34;6.15;;;2.80;;
11653;SDS011;5883;48.818;9.114;2023-04-26T07:47:19;5.55;;;2.83;;
11653;SDS011;5883;48.818;9.114;2023-04-26T07:50:04;4.22;;;2.70;;
11653;SDS011;5883;48.818;9.114;2023-04-26T07:52:50;5.10;;;2.35;;
11653;SDS011;5883;48.818;9.114;2023-04-26T07:55:35;6.20;;;2.88;;
11653;SDS011;5883;48.818;9.114;2023-04-26T07:58:21;4.07;;;2.35;;
11653;SDS011;5883;48.818;9.114;2023-04-26T08:01:07;4.72;;;3.03;;
11653;SDS011;5883;48.818;9.114;2023-04-26T08:03:54;4.15;;;2.80;;
11653;SDS011;5883;48.818;9.114;2023-04-26T08:06:39;3.85;;;2.80;;
11653;SDS011;5883;48.818;9.114;2023-04-26T08:09:27;6.75;;;2.75;;
11653;SDS011;5883;48.818;9.114;2023-04-26T08:12:13;4.53;;;2.60;;
11653;SDS011;5883;48.818;9.114;2023-04-26T08:14:58;5.90;;;2.40;;
11653;SDS011;5883;48.818;9.114;2023-04-26T08:17:44;6.75;;;2.75;;
11653;SDS011;5883;48.818;9.114;2023-04-26T08:20:30;5.93;;;2.70;;
11653;SDS011;5883;48.818;9.114;2023-04-26T08:23:16;3.80;;;2.83;;
11653;SDS011;5883;48.818;9.114;2023-04-26T08:26:02;3.65;;;2.28;;
11653;SDS011;5883;48.818;9.114;2023-04-26T08:28:47;5.47;;;2.53;;
11653;SDS011;5883;48.818;9.114;2023-04-26T08:31:32;4.30;;;2.83;;
11653;SDS011;5883;48.818;9.114;2023-04-26T08:34:19;7.22;;;3.15;;
11653;SDS011;5883;48.818;9.114;2023-04-26T08:37:05;5.55;;;3.25;;
11653;SDS011;5883;48.818;9.114;2023-04-26T08:39:50;4.05;;;2.85;;
11653;SDS011;5883;48.818;9.114;2023-04-26T08:42:38;5.60;;;3.45;;
11653;SDS011;5883;48.818;9.114;2023-04-26T08:45:23;8.02;;;3.78;;
11653;SDS011;5883;48.818;9.114;2023-04-26T08:48:09;6.57;;;3.13;;
11653;SDS011;5883;48.818;9.114;2023-04-26T08:50:58;7.90;;;2.90;;
11653;SDS011;5883;48.818;9.114;2023-04-26T08:53:44;4.57;;;2.70;;
11653;SDS011;5883;48.818;9.114;2023-04-26T08:56:29;6.57;;;3.20;;
11653;SDS011;5883;48.818;9.114;2023-04-26T08:59:14;5.40;;;3.08;;
11653;SDS011;5883;48.818;9.114;2023-04-26T09:01:59;5.82;;;3.95;;
11653;SDS011;5883;48.818;9.114;2023-04-26T09:04:45;6.68;;;3.38;;
11653;SDS011;5883;48.818;9.114;2023-04-26T09:07:34;6.35;;;3.17;;
11653;SDS011;5883;48.818;9.114;2023-04-26T09:10:21;6.90;;;3.70;;
11653;SDS011;5883;48.818;9.114;2023-04-26T09:13:06;6.47;;;3.78;;
11653;SDS011;5883;48.818;9.114;2023-04-26T09:15:51;19.17;;;4.55;;
11653;SDS011;5883;48.818;9.114;2023-04-26T09:18:45;11.57;;;3.97;;
11653;SDS011;5883;48.818;9.114;2023-04-26T09:21:31;6.13;;;4.20;;
11653;SDS011;5883;48.818;9.114;2023-04-26T09:24:17;5.55;;;3.40;;
11653;SDS011;5883;48.818;9.114;2023-04-26T09:27:02;9.15;;;3.72;;
11653;SDS011;5883;48.818;9.114;2023-04-26T09:29:57;6.53;;;3.80;;
11653;SDS011;5883;48.818;9.114;2023-04-26T09:32:44;8.02;;;4.05;;
11653;SDS011;5883;48.818;9.114;2023-04-26T09:35:30;7.57;;;4.32;;
11653;SDS011;5883;48.818;9.114;2023-04-26T09:38:16;7.22;;;4.28;;
11653;SDS011;5883;48.818;9.114;2023-04-26T09:41:03;9.25;;;4.22;;
11653;SDS011;5883;48.818;9.114;2023-04-26T09:43:49;5.07;;;3.63;;
11653;SDS011;5883;48.818;9.114;2023-04-26T09:46:35;6.15;;;3.38;;
11653;SDS011;5883;48.818;9.114;2023-04-26T09:49:20;7.22;;;4.05;;
11653;SDS011;5883;48.818;9.114;2023-04-26T09:52:05;7.82;;;3.80;;
11653;SDS011;5883;48.818;9.114;2023-04-26T09:54:51;4.10;;;3.70;;
11653;SDS011;5883;48.818;9.114;2023-04-26T09:57:42;9.63;;;3.78;;
11653;SDS011;5883;48.818;9.114;2023-04-26T10:00:28;7.90;;;3.58;;
11653;SDS011;5883;48.818;9.114;2023-04-26T10:03:13;5.25;;;3.38;;
11653;SDS011;5883;48.818;9.114;2023-04-26T10:06:00;7.90;;;3.65;;
11653;SDS011;5883;48.818;9.114;2023-04-26T10:08:45;5.03;;;3.50;;
11653;SDS011;5883;48.818;9.114;2023-04-26T10:11:31;5.03;;;3.35;;
11653;SDS011;5883;48.818;9.114;2023-04-26T10:14:19;5.47;;;3.20;;
11653;SDS011;5883;48.818;9.114;2023-04-26T10:17:04;4.25;;;3.08;;
11653;SDS011;5883;48.818;9.114;2023-04-26T10:19:52;5.53;;;3.65;;
11653;SDS011;5883;48.818;9.114;2023-04-26T10:22:38;7.13;;;3.83;;
11653;SDS011;5883;48.818;9.114;2023-04-26T10:25:33;4.85;;;3.15;;
11653;SDS011;5883;48.818;9.114;2023-04-26T10:28:18;4.63;;;2.90;;
11653;SDS011;5883;48.818;9.114;2023-04-26T10:31:24;6.78;;;3.40;;
11653;SDS011;5883;48.818;9.114;2023-04-26T10:34:19;6.10;;;3.50;;
11653;SDS011;5883;48.818;9.114;2023-04-26T10:37:08;7.32;;;3.70;;
11653;SDS011;5883;48.818;9.114;2023-04-26T10:39:53;7.38;;;3.58;;
11653;SDS011;5883;48.818;9.114;2023-04-26T10:46:31;4.53;;;3.35;;
11653;SDS011;5883;48.818;9.114;2023-04-26T10:49:18;5.63;;;3.17;;
11653;SDS011;5883;48.818;9.114;2023-04-26T10:52:09;3.88;;;3.20;;
11653;SDS011;5883;48.818;9.114;2023-04-26T10:54:57;10.68;;;4.07;;
11653;SDS011;5883;48.818;9.114;2023-04-26T10:57:46;11.45;;;4.38;;
11653;SDS011;5883;48.818;9.114;2023-04-26T11:00:32;6.65;;;3.30;;
11653;SDS011;5883;48.818;9.114;2023-04-26T11:03:17;6.20;;;4.00;;
11653;SDS011;5883;48.818;9.114;2023-04-26T11:06:06;5.30;;;3.30;;
11653;SDS011;5883;48.818;9.114;2023-04-26T11:08:52;6.85;;;3.38;;
11653;SDS011;5883;48.818;9.114;2023-04-26T11:11:39;5.32;;;3.47;;
11653;SDS011;5883;48.818;9.114;2023-04-26T11:14:34;6.00;;;4.05;;
11653;SDS011;5883;48.818;9.114;2023-04-26T11:17:19;6.22;;;3.42;;
11653;SDS011;5883;48.818;9.114;2023-04-26T11:20:07;6.88;;;3.50;;
11653;SDS011;5883;48.818;9.114;2023-04-26T11:22:54;7.38;;;3.40;;
11653;SDS011;5883;48.818;9.114;2023-04-26T11:25:39;5.90;;;3.20;;
11653;SDS011;5883;48.818;9.114;2023-04-26T11:28:25;4.45;;;3.53;;
11653;SDS011;5883;48.818;9.114;2023-04-26T11:31:10;6.97;;;3.58;;
11653;SDS011;5883;48.818;9.114;2023-04-26T11:33:59;5.80;;;3.97;;
11653;SDS011;5883;48.818;9.114;2023-04-26T11:36:44;6.22;;;3.80;;
11653;SDS011;5883;48.818;9.114;2023-04-26T11:39:31;5.78;;;4.00;;
11653;SDS011;5883;48.818;9.114;2023-04-26T11:42:17;6.43;;;3.85;;
11653;SDS011;5883;48.818;9.114;2023-04-26T11:45:02;5.40;;;3.80;;
11653;SDS011;5883;48.818;9.114;2023-04-26T11:47:50;5.95;;;3.15;;
11653;SDS011;5883;48.818;9.114;2023-04-26T11:50:35;4.65;;;3.05;;
11653;SDS011;5883;48.818;9.114;2023-04-26T11:53:21;6.85;;;4.03;;
11653;SDS011;5883;48.818;9.114;2023-04-26T11:56:13;7.57;;;3.22;;
11653;SDS011;5883;48.818;9.114;2023-04-26T11:58:59;5.13;;;3.53;;
11653;SDS011;5883;48.818;9.114;2023-04-26T12:01:48;6.10;;;2.90;;
11653;SDS011;5883;48.818;9.114;2023-04-26T12:04:33;6.18;;;3.63;;
11653;SDS011;5883;48.818;9.114;2023-04-26T12:07:20;6.32;;;2.85;;
11653;SDS011;5883;48.818;9.114;2023-04-26T12:10:14;7.13;;;3.53;;
11653;SDS011;5883;48.818;9.114;2023-04-26T12:13:01;4.60;;;3.45;;
11653;SDS011;5883;48.818;9.114;2023-04-26T12:15:46;6.53;;;3.05;;
11653;SDS011;5883;48.818;9.114;2023-04-26T12:18:33;7.43;;;3.58;;
11653;SDS011;5883;48.818;9.114;2023-04-26T12:21:18;6.10;;;2.88;;
11653;SDS011;5883;48.818;9.114;2023-04-26T12:24:03;7.78;;;3.50;;
11653;SDS011;5883;48.818;9.114;2023-04-26T12:26:48;5.47;;;3.10;;
11653;SDS011;5883;48.818;9.114;2023-04-26T12:29:35;6.53;;;3.17;;
11653;SDS011;5883;48.818;9.114;2023-04-26T12:32:20;5.63;;;2.88;;
11653;SDS011;5883;48.818;9.114;2023-04-26T12:35:06;6.22;;;2.90;;
11653;SDS011;5883;48.818;9.114;2023-04-26T12:37:51;5.65;;;2.55;;
11653;SDS011;5883;48.818;9.114;2023-04-26T12:40:39;5.05;;;2.72;;
11653;SDS011;5883;48.818;9.114;2023-04-26T12:43:24;2.90;;;2.30;;
11653;SDS011;5883;48.818;9.114;2023-04-26T12:46:10;4.68;;;2.55;;
11653;SDS011;5883;48.818;9.114;2023-04-26T12:48:55;5.20;;;2.90;;
11653;SDS011;5883;48.818;9.114;2023-04-26T12:51:40;4.72;;;2.88;;
11653;SDS011;5883;48.818;9.114;2023-04-26T12:54:25;3.60;;;2.67;;
11653;SDS011;5883;48.818;9.114;2023-04-26T12:57:10;3.95;;;2.55;;
11653;SDS011;5883;48.818;9.114;2023-04-26T12:59:55;5.10;;;3.00;;
11653;SDS011;5883;48.818;9.114;2023-04-26T13:02:41;5.90;;;2.83;;
11653;SDS011;5883;48.818;9.114;2023-04-26T13:05:27;4.93;;;2.58;;
11653;SDS011;5883;48.818;9.114;2023-04-26T13:08:12;5.32;;;2.70;;
11653;SDS011;5883;48.818;9.114;2023-04-26T13:10:57;5.88;;;2.38;;
11653;SDS011;5883;48.818;9.114;2023-04-26T13:13:42;3.75;;;2.40;;
11653;SDS011;5883;48.818;9.114;2023-04-26T13:16:27;4.68;;;2.67;;
11653;SDS011;5883;48.818;9.114;2023-04-26T13:19:14;3.85;;;2.50;;
11653;SDS011;5883;48.818;9.114;2023-04-26T13:22:01;4.22;;;2.47;;
11653;SDS011;5883;48.818;9.114;2023-04-26T13:24:47;5.25;;;2.58;;
11653;SDS011;5883;48.818;9.114;2023-04-26T13:27:32;4.97;;;2.25;;
11653;SDS011;5883;48.818;9.114;2023-04-26T13:30:17;5.18;;;2.60;;
11653;SDS011;5883;48.818;9.114;2023-04-26T13:33:02;9.00;;;2.33;;
11653;SDS011;5883;48.818;9.114;2023-04-26T13:35:48;11.77;;;3.15;;
11653;SDS011;5883;48.818;9.114;2023-04-26T13:38:33;5.72;;;2.75;;
11653;SDS011;5883;48.818;9.114;2023-04-26T13:41:18;4.70;;;2.90;;
11653;SDS011;5883;48.818;9.114;2023-04-26T13:44:05;7.78;;;3.38;;
11653;SDS011;5883;48.818;9.114;2023-04-26T13:46:50;14.75;;;3.13;;
11653;SDS011;5883;48.818;9.114;2023-04-26T13:49:35;8.48;;;3.25;;
11653;SDS011;5883;48.818;9.114;2023-04-26T13:52:21;4.82;;;3.03;;
11653;SDS011;5883;48.818;9.114;2023-04-26T13:55:06;4.10;;;2.90;;
11653;SDS011;5883;48.818;9.114;2023-04-26T13:57:52;6.90;;;2.63;;
11653;SDS011;5883;48.818;9.114;2023-04-26T14:00:37;5.10;;;2.80;;
11653;SDS011;5883;48.818;9.114;2023-04-26T14:03:22;4.45;;;2.58;;
11653;SDS011;5883;48.818;9.114;2023-04-26T14:06:07;5.75;;;2.83;;
11653;SDS011;5883;48.818;9.114;2023-04-26T14:08:54;4.88;;;2.63;;
11653;SDS011;5883;48.818;9.114;2023-04-26T14:11:39;4.35;;;2.53;;
11653;SDS011;5883;48.818;9.114;2023-04-26T14:14:24;3.15;;;2.67;;
11653;SDS011;5883;48.818;9.114;2023-04-26T14:17:09;4.13;;;2.72;;
11653;SDS011;5883;48.818;9.114;2023-04-26T14:19:55;3.13;;;2.20;;
11653;SDS011;5883;48.818;9.114;2023-04-26T14:22:40;5.78;;;2.63;;
11653;SDS011;5883;48.818;9.114;2023-04-26T14:25:26;6.63;;;2.60;;
11653;SDS011;5883;48.818;9.114;2023-04-26T14:28:11;3.65;;;2.42;;
11653;SDS011;5883;48.818;9.114;2023-04-26T14:30:58;5.55;;;2.33;;
11653;SDS011;5883;48.818;9.114;2023-04-26T14:33:43;5.75;;;2.58;;
11653;SDS011;5883;48.818;9.114;2023-04-26T14:36:28;4.65;;;2.97;;
11653;SDS011;5883;48.818;9.114;2023-04-26T14:39:14;5.38;;;2.92;;
11653;SDS011;5883;48.818;9.114;2023-04-26T14:42:01;6.70;;;3.05;;
11653;SDS011;5883;48.818;9.114;2023-04-26T14:44:46;5.70;;;2.65;;
11653;SDS011;5883;48.818;9.114;2023-04-26T14:47:31;6.72;;;3.50;;
11653;SDS011;5883;48.818;9.114;2023-04-26T14:50:17;4.50;;;2.85;;
11653;SDS011;5883;48.818;9.114;2023-04-26T14:53:03;5.30;;;3.42;;
11653;SDS011;5883;48.818;9.114;2023-04-26T14:55:52;8.27;;;3.63;;
11653;SDS011;5883;48.818;9.114;2023-04-26T14:58:39;4.50;;;3.25;;
11653;SDS011;5883;48.818;9.114;2023-04-26T15:01:24;5.82;;;3.03;;
11653;SDS011;5883;48.818;9.114;2023-04-26T15:04:10;3.22;;;2.90;;
11653;SDS011;5883;48.818;9.114;2023-04-26T15:06:55;4.85;;;2.80;;
11653;SDS011;5883;48.818;9.114;2023-04-26T15:09:41;6.63;;;3.03;;
11653;SDS011;5883;48.818;9.114;2023-04-26T15:12:26;5.07;;;2.40;;
11653;SDS011;5883;48.818;9.114;2023-04-26T15:15:13;6.45;;;2.80;;
11653;SDS011;5883;48.818;9.114;2023-04-26T15:17:58;6.72;;;3.28;;
11653;SDS011;5883;48.818;9.114;2023-04-26T15:20:44;6.80;;;3.17;;
11653;SDS011;5883;48.818;9.114;2023-04-26T15:23:29;8.20;;;2.97;;
11653;SDS011;5883;48.818;9.114;2023-04-26T15:26:15;6.05;;;3.00;;
11653;SDS011;5883;48.818;9.114;2023-04-26T15:29:01;8.50;;;3.00;;
11653;SDS011;5883;48.818;9.114;2023-04-26T15:31:47;10.57;;;3.50;;
11653;SDS011;5883;48.818;9.114;2023-04-26T15:34:37;5.80;;;3.03;;
11653;SDS011;5883;48.818;9.114;2023-04-26T15:37:22;6.10;;;2.72;;
11653;SDS011;5883;48.818;9.114;2023-04-26T15:40:08;6.60;;;2.70;;
11653;SDS011;5883;48.818;9.114;2023-04-26T15:42:53;9.68;;;3.38;;
11653;SDS011;5883;48.818;9.114;2023-04-26T15:45:38;4.75;;;2.80;;
11653;SDS011;5883;48.818;9.114;2023-04-26T15:48:25;6.32;;;2.45;;
11653;SDS011;5883;48.818;9.114;2023-04-26T15:51:10;7.35;;;2.88;;
11653;SDS011;5883;48.818;9.114;2023-04-26T15:53:55;4.15;;;2.60;;
11653;SDS011;5883;48.818;9.114;2023-04-26T15:56:40;6.00;;;4.50;;
11653;SDS011;5883;48.818;9.114;2023-04-26T15:59:25;5.10;;;3.28;;
11653;SDS011;5883;48.818;9.114;2023-04-26T16:02:11;5.50;;;2.70;;
11653;SDS011;5883;48.818;9.114;2023-04-26T16:04:57;3.13;;;2.50;;
11653;SDS011;5883;48.818;9.114;2023-04-26T16:07:42;6.22;;;2.10;;
11653;SDS011;5883;48.818;9.114;2023-04-26T16:10:28;5.38;;;2.28;;
11653;SDS011;5883;48.818;9.114;2023-04-26T16:13:13;2.47;;;1.90;;
11653;SDS011;5883;48.818;9.114;2023-04-26T16:15:58;4.78;;;2.75;;
11653;SDS011;5883;48.818;9.114;2023-04-26T16:18:44;3.53;;;2.20;;
11653;SDS011;5883;48.818;9.114;2023-04-26T16:21:30;4.97;;;2.40;;
11653;SDS011;5883;48.818;9.114;2023-04-26T16:24:16;7.35;;;2.78;;
11653;SDS011;5883;48.818;9.114;2023-04-26T16:27:01;4.72;;;2.40;;
11653;SDS011;5883;48.818;9.114;2023-04-26T16:29:47;4.88;;;2.70;;
11653;SDS011;5883;48.818;9.114;2023-04-26T16:32:32;5.72;;;2.80;;
11653;SDS011;5883;48.818;9.114;2023-04-26T16:35:17;6.25;;;2.65;;
11653;SDS011;5883;48.818;9.114;2023-04-26T16:38:03;7.05;;;2.78;;
11653;SDS011;5883;48.818;9.114;2023-04-26T16:40:52;5.57;;;2.58;;
11653;SDS011;5883;48.818;9.114;2023-04-26T16:43:39;3.85;;;1.88;;
11653;SDS011;5883;48.818;9.114;2023-04-26T16:46:25;6.43;;;2.70;;
11653;SDS011;5883;48.818;9.114;2023-04-26T16:49:11;4.53;;;2.38;;
11653;SDS011;5883;48.818;9.114;2023-04-26T16:51:56;5.07;;;2.08;;
11653;SDS011;5883;48.818;9.114;2023-04-26T16:54:43;4.05;;;2.40;;